sensor_id;sensor_type;location;lat;lon;timestamp;pressure;altitude;pressure_sealevel;temperature;humidity
24858;BME280;12935;50.782;6.074;2022-12-18T00:02:19;100549.63;;;-5.19;100.00
24858;BME280;12935;50.782;6.074;2022-12-18T00:04:45;100531.28;;;-5.20;100.00
24858;BME280;12935;50.782;6.074;2022-12-18T00:07:10;100524.84;;;-5.30;100.00
24858;BME280;12935;50.782;6.074;2022-12-18T00:09:35;100540.56;;;-5.38;100.00
24858;BME280;12935;50.782;6.074;2022-12-18T00:12:01;100530.19;;;-5.30;100.00
24858;BME280;12935;50.782;6.074;2022-12-18T00:14:26;100535.00;;;-5.21;100.00
24858;BME280;12935;50.782;6.074;2022-12-18T00:16:51;100538.44;;;-5.26;100.00
24858;BME280;12935;50.782;6.074;2022-12-18T00:19:17;100543.19;;;-5.43;100.00
24858;BME280;12935;50.782;6.074;2022-12-18T00:21:43;100540.47;;;-5.69;100.00
24858;BME280;12935;50.782;6.074;2022-12-18T00:24:10;100547.59;;;-5.79;100.00
24858;BME280;12935;50.782;6.074;2022-12-18T00:26:36;100558.69;;;-5.97;100.00
24858;BME280;12935;50.782;6.074;2022-12-18T00:29:12;100558.44;;;-6.01;100.00
24858;BME280;12935;50.782;6.074;2022-12-18T00:31:39;100560.09;;;-5.85;100.00
24858;BME280;12935;50.782;6.074;2022-12-18T00:34:04;100557.91;;;-5.98;100.00
24858;BME280;12935;50.782;6.074;2022-12-18T00:36:32;100560.94;;;-6.26;100.00
24858;BME280;12935;50.782;6.074;2022-12-18T00:38:59;100551.78;;;-6.46;100.00
24858;BME280;12935;50.782;6.074;2022-12-18T00:41:26;100551.22;;;-6.48;100.00
24858;BME280;12935;50.782;6.074;2022-12-18T00:44:12;100542.09;;;-6.20;100.00
24858;BME280;12935;50.782;6.074;2022-12-18T00:46:38;100545.69;;;-5.99;100.00
24858;BME280;12935;50.782;6.074;2022-12-18T00:49:04;100540.34;;;-5.94;100.00
24858;BME280;12935;50.782;6.074;2022-12-18T00:51:29;100548.88;;;-5.92;100.00
24858;BME280;12935;50.782;6.074;2022-12-18T00:53:55;100537.44;;;-5.82;100.00
24858;BME280;12935;50.782;6.074;2022-12-18T00:56:20;100530.31;;;-5.72;100.00
24858;BME280;12935;50.782;6.074;2022-12-18T00:58:47;100536.41;;;-5.76;100.00
24858;BME280;12935;50.782;6.074;2022-12-18T01:01:13;100526.59;;;-5.71;100.00
24858;BME280;12935;50.782;6.074;2022-12-18T01:03:38;100526.84;;;-5.77;100.00
24858;BME280;12935;50.782;6.074;2022-12-18T01:06:11;100534.78;;;-5.87;100.00
24858;BME280;12935;50.782;6.074;2022-12-18T01:08:37;100526.84;;;-5.77;100.00
24858;BME280;12935;50.782;6.074;2022-12-18T01:11:14;100526.88;;;-5.72;100.00
24858;BME280;12935;50.782;6.074;2022-12-18T01:13:39;100530.63;;;-5.58;100.00
24858;BME280;12935;50.782;6.074;2022-12-18T01:16:05;100524.78;;;-5.60;100.00
24858;BME280;12935;50.782;6.074;2022-12-18T01:18:31;100521.53;;;-5.72;100.00
24858;BME280;12935;50.782;6.074;2022-12-18T01:20:56;100507.91;;;-5.81;100.00
24858;BME280;12935;50.782;6.074;2022-12-18T01:23:22;100506.88;;;-5.90;100.00
24858;BME280;12935;50.782;6.074;2022-12-18T01:25:47;100500.19;;;-5.87;100.00
24858;BME280;12935;50.782;6.074;2022-12-18T01:28:12;100508.19;;;-5.82;100.00
24858;BME280;12935;50.782;6.074;2022-12-18T01:30:38;100508.72;;;-5.85;100.00
24858;BME280;12935;50.782;6.074;2022-12-18T01:33:06;100512.78;;;-5.68;100.00
24858;BME280;12935;50.782;6.074;2022-12-18T01:35:31;100511.97;;;-5.68;100.00
24858;BME280;12935;50.782;6.074;2022-12-18T01:37:57;100501.31;;;-5.73;100.00
24858;BME280;12935;50.782;6.074;2022-12-18T01:40:22;100513.72;;;-6.04;100.00
24858;BME280;12935;50.782;6.074;2022-12-18T01:42:52;100519.97;;;-6.30;100.00
24858;BME280;12935;50.782;6.074;2022-12-18T01:50:36;100526.78;;;-6.77;100.00
24858;BME280;12935;50.782;6.074;2022-12-18T01:53:21;100532.53;;;-6.90;100.00
24858;BME280;12935;50.782;6.074;2022-12-18T01:55:52;100534.56;;;-7.02;100.00
24858;BME280;12935;50.782;6.074;2022-12-18T01:58:19;100519.34;;;-7.12;100.00
24858;BME280;12935;50.782;6.074;2022-12-18T02:00:45;100510.03;;;-7.14;100.00
24858;BME280;12935;50.782;6.074;2022-12-18T02:03:11;100511.78;;;-7.25;100.00
24858;BME280;12935;50.782;6.074;2022-12-18T02:05:49;100518.84;;;-7.35;100.00
24858;BME280;12935;50.782;6.074;2022-12-18T02:08:22;100512.19;;;-7.38;100.00
24858;BME280;12935;50.782;6.074;2022-12-18T02:11:03;100511.94;;;-7.36;100.00
24858;BME280;12935;50.782;6.074;2022-12-18T02:13:38;100507.06;;;-7.18;100.00
24858;BME280;12935;50.782;6.074;2022-12-18T02:18:34;100496.31;;;-7.01;100.00
24858;BME280;12935;50.782;6.074;2022-12-18T02:21:11;100496.19;;;-7.16;100.00
24858;BME280;12935;50.782;6.074;2022-12-18T02:26:14;100497.25;;;-6.85;100.00
24858;BME280;12935;50.782;6.074;2022-12-18T02:29:10;100504.84;;;-6.99;100.00
24858;BME280;12935;50.782;6.074;2022-12-18T02:31:42;100498.78;;;-7.26;100.00
24858;BME280;12935;50.782;6.074;2022-12-18T02:34:09;100498.88;;;-7.43;100.00
24858;BME280;12935;50.782;6.074;2022-12-18T02:36:36;100489.72;;;-7.57;100.00
24858;BME280;12935;50.782;6.074;2022-12-18T02:39:04;100508.63;;;-7.49;100.00
24858;BME280;12935;50.782;6.074;2022-12-18T02:41:32;100499.84;;;-7.49;100.00
24858;BME280;12935;50.782;6.074;2022-12-18T02:43:59;100503.06;;;-7.20;100.00
24858;BME280;12935;50.782;6.074;2022-12-18T02:46:32;100498.78;;;-7.21;100.00
24858;BME280;12935;50.782;6.074;2022-12-18T02:51:40;100495.44;;;-7.12;100.00
24858;BME280;12935;50.782;6.074;2022-12-18T02:54:55;100481.69;;;-7.03;100.00
24858;BME280;12935;50.782;6.074;2022-12-18T02:57:23;100486.88;;;-6.87;100.00
24858;BME280;12935;50.782;6.074;2022-12-18T02:59:59;100485.09;;;-6.76;100.00
24858;BME280;12935;50.782;6.074;2022-12-18T03:02:48;100485.38;;;-6.78;100.00
24858;BME280;12935;50.782;6.074;2022-12-18T03:05:22;100475.00;;;-6.79;100.00
24858;BME280;12935;50.782;6.074;2022-12-18T03:07:57;100477.13;;;-6.76;100.00
24858;BME280;12935;50.782;6.074;2022-12-18T03:10:36;100467.66;;;-6.62;100.00
24858;BME280;12935;50.782;6.074;2022-12-18T03:13:08;100458.69;;;-6.51;100.00
24858;BME280;12935;50.782;6.074;2022-12-18T03:15:39;100450.44;;;-6.54;100.00
24858;BME280;12935;50.782;6.074;2022-12-18T03:18:17;100458.47;;;-6.86;100.00
24858;BME280;12935;50.782;6.074;2022-12-18T03:20:45;100454.56;;;-7.11;100.00
24858;BME280;12935;50.782;6.074;2022-12-18T03:23:16;100450.13;;;-7.32;100.00
24858;BME280;12935;50.782;6.074;2022-12-18T03:25:44;100449.53;;;-7.07;100.00
24858;BME280;12935;50.782;6.074;2022-12-18T03:28:13;100440.38;;;-6.89;100.00
24858;BME280;12935;50.782;6.074;2022-12-18T03:30:41;100440.84;;;-6.97;100.00
24858;BME280;12935;50.782;6.074;2022-12-18T03:33:12;100444.81;;;-7.00;100.00
24858;BME280;12935;50.782;6.074;2022-12-18T03:35:40;100440.63;;;-7.23;100.00
24858;BME280;12935;50.782;6.074;2022-12-18T03:38:07;100436.25;;;-7.39;100.00
24858;BME280;12935;50.782;6.074;2022-12-18T03:40:53;100431.16;;;-7.46;100.00
24858;BME280;12935;50.782;6.074;2022-12-18T03:46:02;100436.41;;;-7.51;100.00
24858;BME280;12935;50.782;6.074;2022-12-18T03:48:31;100441.03;;;-7.41;100.00
24858;BME280;12935;50.782;6.074;2022-12-18T03:51:10;100435.88;;;-7.21;100.00
24858;BME280;12935;50.782;6.074;2022-12-18T03:53:44;100429.34;;;-7.08;100.00
24858;BME280;12935;50.782;6.074;2022-12-18T03:56:12;100428.94;;;-7.27;100.00
24858;BME280;12935;50.782;6.074;2022-12-18T03:58:40;100431.25;;;-7.35;100.00
24858;BME280;12935;50.782;6.074;2022-12-18T04:01:07;100430.44;;;-7.36;100.00
24858;BME280;12935;50.782;6.074;2022-12-18T04:03:35;100424.69;;;-7.55;100.00
24858;BME280;12935;50.782;6.074;2022-12-18T04:06:01;100421.47;;;-7.62;100.00
24858;BME280;12935;50.782;6.074;2022-12-18T04:08:27;100427.59;;;-7.83;100.00
24858;BME280;12935;50.782;6.074;2022-12-18T04:10:53;100422.94;;;-7.98;100.00
24858;BME280;12935;50.782;6.074;2022-12-18T04:13:28;100430.84;;;-8.03;100.00
24858;BME280;12935;50.782;6.074;2022-12-18T04:15:54;100420.75;;;-8.06;100.00
24858;BME280;12935;50.782;6.074;2022-12-18T04:18:19;100420.41;;;-7.88;100.00
24858;BME280;12935;50.782;6.074;2022-12-18T04:20:45;100435.31;;;-7.82;100.00
24858;BME280;12935;50.782;6.074;2022-12-18T04:23:10;100426.38;;;-7.75;100.00
24858;BME280;12935;50.782;6.074;2022-12-18T04:25:35;100420.41;;;-7.61;100.00
24858;BME280;12935;50.782;6.074;2022-12-18T04:28:01;100417.69;;;-7.66;100.00
24858;BME280;12935;50.782;6.074;2022-12-18T04:30:26;100410.19;;;-7.47;100.00
24858;BME280;12935;50.782;6.074;2022-12-18T04:32:51;100397.63;;;-7.57;100.00
24858;BME280;12935;50.782;6.074;2022-12-18T04:35:17;100415.59;;;-7.64;100.00
24858;BME280;12935;50.782;6.074;2022-12-18T04:37:42;100407.72;;;-7.54;100.00
24858;BME280;12935;50.782;6.074;2022-12-18T04:40:07;100396.72;;;-7.67;100.00
24858;BME280;12935;50.782;6.074;2022-12-18T04:42:33;100388.63;;;-7.56;100.00
24858;BME280;12935;50.782;6.074;2022-12-18T04:44:58;100383.88;;;-7.49;100.00
24858;BME280;12935;50.782;6.074;2022-12-18T04:47:23;100390.75;;;-7.53;100.00
24858;BME280;12935;50.782;6.074;2022-12-18T04:49:49;100388.81;;;-7.62;100.00
24858;BME280;12935;50.782;6.074;2022-12-18T04:52:14;100402.72;;;-7.50;100.00
24858;BME280;12935;50.782;6.074;2022-12-18T04:54:39;100418.81;;;-7.30;100.00
24858;BME280;12935;50.782;6.074;2022-12-18T04:57:05;100417.88;;;-7.14;100.00
24858;BME280;12935;50.782;6.074;2022-12-18T04:59:30;100425.00;;;-7.19;100.00
24858;BME280;12935;50.782;6.074;2022-12-18T05:01:55;100432.03;;;-7.40;100.00
24858;BME280;12935;50.782;6.074;2022-12-18T05:04:21;100431.44;;;-7.74;100.00
24858;BME280;12935;50.782;6.074;2022-12-18T05:06:46;100437.81;;;-7.97;100.00
24858;BME280;12935;50.782;6.074;2022-12-18T05:09:11;100443.09;;;-7.97;100.00
24858;BME280;12935;50.782;6.074;2022-12-18T05:11:37;100441.34;;;-7.86;100.00
24858;BME280;12935;50.782;6.074;2022-12-18T05:14:02;100440.13;;;-7.79;100.00
24858;BME280;12935;50.782;6.074;2022-12-18T05:16:27;100450.94;;;-7.58;100.00
24858;BME280;12935;50.782;6.074;2022-12-18T05:18:52;100443.38;;;-7.45;100.00
24858;BME280;12935;50.782;6.074;2022-12-18T05:21:18;100445.06;;;-7.33;100.00
24858;BME280;12935;50.782;6.074;2022-12-18T05:23:43;100446.38;;;-7.63;100.00
24858;BME280;12935;50.782;6.074;2022-12-18T05:26:09;100452.03;;;-7.54;100.00
24858;BME280;12935;50.782;6.074;2022-12-18T05:28:39;100450.44;;;-7.55;100.00
24858;BME280;12935;50.782;6.074;2022-12-18T05:31:04;100448.28;;;-7.58;100.00
24858;BME280;12935;50.782;6.074;2022-12-18T05:33:32;100451.22;;;-7.28;100.00
24858;BME280;12935;50.782;6.074;2022-12-18T05:36:00;100444.88;;;-7.27;100.00
24858;BME280;12935;50.782;6.074;2022-12-18T05:38:26;100434.38;;;-7.12;100.00
24858;BME280;12935;50.782;6.074;2022-12-18T05:40:52;100437.69;;;-6.94;100.00
24858;BME280;12935;50.782;6.074;2022-12-18T05:43:19;100437.75;;;-6.84;100.00
24858;BME280;12935;50.782;6.074;2022-12-18T05:45:44;100446.81;;;-6.80;100.00
24858;BME280;12935;50.782;6.074;2022-12-18T05:48:10;100435.66;;;-6.82;100.00
24858;BME280;12935;50.782;6.074;2022-12-18T05:50:36;100427.47;;;-6.70;100.00
24858;BME280;12935;50.782;6.074;2022-12-18T05:53:03;100429.91;;;-6.64;100.00
24858;BME280;12935;50.782;6.074;2022-12-18T05:55:28;100434.69;;;-6.66;100.00
24858;BME280;12935;50.782;6.074;2022-12-18T05:57:54;100426.66;;;-6.71;100.00
24858;BME280;12935;50.782;6.074;2022-12-18T06:00:19;100439.03;;;-6.50;100.00
24858;BME280;12935;50.782;6.074;2022-12-18T06:02:47;100442.56;;;-6.34;100.00
24858;BME280;12935;50.782;6.074;2022-12-18T06:05:12;100444.97;;;-6.32;100.00
24858;BME280;12935;50.782;6.074;2022-12-18T06:07:38;100444.94;;;-6.38;100.00
24858;BME280;12935;50.782;6.074;2022-12-18T06:10:03;100443.84;;;-6.42;100.00
24858;BME280;12935;50.782;6.074;2022-12-18T06:12:29;100431.84;;;-6.49;100.00
24858;BME280;12935;50.782;6.074;2022-12-18T06:14:54;100423.28;;;-6.61;100.00
24858;BME280;12935;50.782;6.074;2022-12-18T06:17:19;100426.72;;;-7.03;100.00
24858;BME280;12935;50.782;6.074;2022-12-18T06:19:45;100420.19;;;-7.27;100.00
24858;BME280;12935;50.782;6.074;2022-12-18T06:22:10;100431.47;;;-7.42;100.00
24858;BME280;12935;50.782;6.074;2022-12-18T06:24:35;100426.09;;;-7.47;100.00
24858;BME280;12935;50.782;6.074;2022-12-18T06:27:00;100431.47;;;-7.42;100.00
24858;BME280;12935;50.782;6.074;2022-12-18T06:29:26;100413.56;;;-7.57;100.00
24858;BME280;12935;50.782;6.074;2022-12-18T06:31:51;100432.94;;;-7.56;100.00
24858;BME280;12935;50.782;6.074;2022-12-18T06:34:16;100421.91;;;-7.43;100.00
24858;BME280;12935;50.782;6.074;2022-12-18T06:36:42;100414.31;;;-7.29;100.00
24858;BME280;12935;50.782;6.074;2022-12-18T06:39:07;100415.31;;;-7.35;100.00
24858;BME280;12935;50.782;6.074;2022-12-18T06:41:32;100419.56;;;-7.66;100.00
24858;BME280;12935;50.782;6.074;2022-12-18T06:43:57;100430.88;;;-7.76;100.00
24858;BME280;12935;50.782;6.074;2022-12-18T06:46:23;100433.38;;;-7.91;100.00
24858;BME280;12935;50.782;6.074;2022-12-18T06:48:49;100438.13;;;-7.93;100.00
24858;BME280;12935;50.782;6.074;2022-12-18T06:51:17;100439.16;;;-7.94;100.00
24858;BME280;12935;50.782;6.074;2022-12-18T06:53:42;100441.50;;;-7.71;100.00
24858;BME280;12935;50.782;6.074;2022-12-18T06:56:07;100444.97;;;-7.70;100.00
24858;BME280;12935;50.782;6.074;2022-12-18T06:58:33;100436.28;;;-7.66;100.00
24858;BME280;12935;50.782;6.074;2022-12-18T07:01:03;100443.97;;;-7.64;100.00
24858;BME280;12935;50.782;6.074;2022-12-18T07:03:29;100444.94;;;-7.75;100.00
24858;BME280;12935;50.782;6.074;2022-12-18T07:05:54;100432.81;;;-7.93;100.00
24858;BME280;12935;50.782;6.074;2022-12-18T07:08:20;100433.00;;;-8.00;100.00
24858;BME280;12935;50.782;6.074;2022-12-18T07:10:46;100433.22;;;-7.80;100.00
24858;BME280;12935;50.782;6.074;2022-12-18T07:13:11;100422.94;;;-7.71;100.00
24858;BME280;12935;50.782;6.074;2022-12-18T07:15:36;100421.22;;;-7.60;100.00
24858;BME280;12935;50.782;6.074;2022-12-18T07:18:02;100432.81;;;-7.66;100.00
24858;BME280;12935;50.782;6.074;2022-12-18T07:20:27;100421.53;;;-7.52;100.00
24858;BME280;12935;50.782;6.074;2022-12-18T07:22:52;100433.50;;;-7.49;100.00
24858;BME280;12935;50.782;6.074;2022-12-18T07:25:17;100431.47;;;-7.42;100.00
24858;BME280;12935;50.782;6.074;2022-12-18T07:27:43;100427.34;;;-7.28;100.00
24858;BME280;12935;50.782;6.074;2022-12-18T07:30:09;100421.34;;;-7.13;100.00
24858;BME280;12935;50.782;6.074;2022-12-18T07:32:34;100406.66;;;-7.21;100.00
24858;BME280;12935;50.782;6.074;2022-12-18T07:34:59;100399.75;;;-7.27;100.00
24858;BME280;12935;50.782;6.074;2022-12-18T07:37:25;100385.31;;;-7.36;100.00
24858;BME280;12935;50.782;6.074;2022-12-18T07:39:50;100376.66;;;-7.26;100.00
24858;BME280;12935;50.782;6.074;2022-12-18T07:42:15;100364.03;;;-7.09;100.00
24858;BME280;12935;50.782;6.074;2022-12-18T07:44:56;100366.22;;;-6.91;100.00
24858;BME280;12935;50.782;6.074;2022-12-18T07:47:21;100358.56;;;-6.87;100.00
24858;BME280;12935;50.782;6.074;2022-12-18T07:49:47;100361.38;;;-6.62;100.00
24858;BME280;12935;50.782;6.074;2022-12-18T07:52:12;100359.31;;;-6.40;100.00
24858;BME280;12935;50.782;6.074;2022-12-18T07:54:38;100352.97;;;-6.28;100.00
24858;BME280;12935;50.782;6.074;2022-12-18T07:57:03;100343.94;;;-6.22;100.00
24858;BME280;12935;50.782;6.074;2022-12-18T07:59:28;100340.25;;;-6.11;100.00
24858;BME280;12935;50.782;6.074;2022-12-18T08:01:54;100354.38;;;-6.06;100.00
24858;BME280;12935;50.782;6.074;2022-12-18T08:04:19;100341.88;;;-6.00;100.00
24858;BME280;12935;50.782;6.074;2022-12-18T08:06:44;100349.88;;;-5.90;100.00
24858;BME280;12935;50.782;6.074;2022-12-18T08:09:10;100338.16;;;-5.84;100.00
24858;BME280;12935;50.782;6.074;2022-12-18T08:11:35;100329.66;;;-5.71;100.00
24858;BME280;12935;50.782;6.074;2022-12-18T08:14:01;100326.97;;;-5.66;100.00
24858;BME280;12935;50.782;6.074;2022-12-18T08:16:26;100340.00;;;-5.74;100.00
24858;BME280;12935;50.782;6.074;2022-12-18T08:18:52;100334.16;;;-5.66;100.00
24858;BME280;12935;50.782;6.074;2022-12-18T08:21:20;100337.34;;;-5.59;100.00
24858;BME280;12935;50.782;6.074;2022-12-18T08:23:47;100323.22;;;-5.49;100.00
24858;BME280;12935;50.782;6.074;2022-12-18T08:26:13;100326.72;;;-5.39;100.00
24858;BME280;12935;50.782;6.074;2022-12-18T08:28:39;100322.16;;;-5.28;100.00
24858;BME280;12935;50.782;6.074;2022-12-18T08:31:04;100319.75;;;-5.35;100.00
24858;BME280;12935;50.782;6.074;2022-12-18T08:33:30;100319.53;;;-5.43;100.00
24858;BME280;12935;50.782;6.074;2022-12-18T08:35:55;100317.41;;;-5.92;100.00
24858;BME280;12935;50.782;6.074;2022-12-18T08:38:20;100326.38;;;-6.28;100.00
24858;BME280;12935;50.782;6.074;2022-12-18T08:40:46;100328.41;;;-6.56;100.00
24858;BME280;12935;50.782;6.074;2022-12-18T08:43:11;100329.69;;;-6.68;100.00
24858;BME280;12935;50.782;6.074;2022-12-18T08:45:55;100335.53;;;-6.72;100.00
24858;BME280;12935;50.782;6.074;2022-12-18T08:48:21;100345.94;;;-6.65;100.00
24858;BME280;12935;50.782;6.074;2022-12-18T08:50:56;100341.41;;;-6.59;100.00
24858;BME280;12935;50.782;6.074;2022-12-18T08:53:22;100343.56;;;-6.56;100.00
24858;BME280;12935;50.782;6.074;2022-12-18T08:55:50;100340.41;;;-6.48;100.00
24858;BME280;12935;50.782;6.074;2022-12-18T08:58:15;100346.84;;;-6.29;100.00
24858;BME280;12935;50.782;6.074;2022-12-18T09:00:41;100353.53;;;-6.11;100.00
24858;BME280;12935;50.782;6.074;2022-12-18T09:03:19;100337.38;;;-5.69;100.00
24858;BME280;12935;50.782;6.074;2022-12-18T09:05:47;100334.69;;;-5.39;100.00
24858;BME280;12935;50.782;6.074;2022-12-18T09:08:12;100321.34;;;-5.08;100.00
24858;BME280;12935;50.782;6.074;2022-12-18T09:10:45;100317.25;;;-4.85;100.00
24858;BME280;12935;50.782;6.074;2022-12-18T09:13:11;100320.41;;;-4.63;100.00
24858;BME280;12935;50.782;6.074;2022-12-18T09:15:42;100305.13;;;-4.47;100.00
24858;BME280;12935;50.782;6.074;2022-12-18T09:18:08;100289.47;;;-4.59;100.00
24858;BME280;12935;50.782;6.074;2022-12-18T09:20:35;100298.78;;;-4.56;100.00
24858;BME280;12935;50.782;6.074;2022-12-18T09:23:01;100300.09;;;-4.54;100.00
24858;BME280;12935;50.782;6.074;2022-12-18T09:25:26;100294.94;;;-4.40;100.00
24858;BME280;12935;50.782;6.074;2022-12-18T09:27:56;100311.09;;;-4.16;100.00
24858;BME280;12935;50.782;6.074;2022-12-18T09:30:22;100303.59;;;-4.09;100.00
24858;BME280;12935;50.782;6.074;2022-12-18T09:32:47;100306.50;;;-4.06;100.00
24858;BME280;12935;50.782;6.074;2022-12-18T09:35:12;100301.25;;;-4.21;100.00
24858;BME280;12935;50.782;6.074;2022-12-18T09:37:37;100308.72;;;-4.23;100.00
24858;BME280;12935;50.782;6.074;2022-12-18T09:40:03;100313.25;;;-4.18;100.00
24858;BME280;12935;50.782;6.074;2022-12-18T09:42:29;100310.19;;;-3.97;100.00
24858;BME280;12935;50.782;6.074;2022-12-18T09:44:55;100302.13;;;-3.92;100.00
24858;BME280;12935;50.782;6.074;2022-12-18T09:47:33;100301.84;;;-3.56;100.00
24858;BME280;12935;50.782;6.074;2022-12-18T09:50:24;100289.00;;;-3.25;100.00
24858;BME280;12935;50.782;6.074;2022-12-18T09:52:54;100282.66;;;-3.05;100.00
24858;BME280;12935;50.782;6.074;2022-12-18T09:55:32;100279.34;;;-2.97;100.00
24858;BME280;12935;50.782;6.074;2022-12-18T09:58:12;100289.59;;;-3.04;100.00
24858;BME280;12935;50.782;6.074;2022-12-18T10:00:38;100283.06;;;-2.93;100.00
24858;BME280;12935;50.782;6.074;2022-12-18T10:03:12;100284.72;;;-2.73;100.00
24858;BME280;12935;50.782;6.074;2022-12-18T10:14:04;100285.91;;;-2.85;100.00
24858;BME280;12935;50.782;6.074;2022-12-18T10:19:42;100277.75;;;-2.74;100.00
24858;BME280;12935;50.782;6.074;2022-12-18T10:27:30;100260.88;;;-2.70;100.00
24858;BME280;12935;50.782;6.074;2022-12-18T10:29:56;100268.09;;;-2.70;100.00
24858;BME280;12935;50.782;6.074;2022-12-18T10:32:28;100269.03;;;-2.61;100.00
24858;BME280;12935;50.782;6.074;2022-12-18T10:34:56;100266.81;;;-2.54;100.00
24858;BME280;12935;50.782;6.074;2022-12-18T10:37:26;100268.78;;;-2.41;100.00
24858;BME280;12935;50.782;6.074;2022-12-18T10:42:32;100274.56;;;-2.15;100.00
24858;BME280;12935;50.782;6.074;2022-12-18T10:45:22;100267.53;;;-2.11;100.00
24858;BME280;12935;50.782;6.074;2022-12-18T10:47:49;100252.78;;;-2.08;100.00
24858;BME280;12935;50.782;6.074;2022-12-18T10:50:29;100273.03;;;-2.02;100.00
24858;BME280;12935;50.782;6.074;2022-12-18T10:53:03;100267.84;;;-2.13;100.00
24858;BME280;12935;50.782;6.074;2022-12-18T10:55:38;100261.75;;;-1.99;100.00
24858;BME280;12935;50.782;6.074;2022-12-18T10:58:23;100254.47;;;-1.80;100.00
24858;BME280;12935;50.782;6.074;2022-12-18T11:01:13;100253.34;;;-1.60;100.00
24858;BME280;12935;50.782;6.074;2022-12-18T11:03:42;100251.53;;;-1.65;100.00
24858;BME280;12935;50.782;6.074;2022-12-18T11:06:13;100242.00;;;-1.71;100.00
24858;BME280;12935;50.782;6.074;2022-12-18T11:08:39;100244.38;;;-1.69;100.00
24858;BME280;12935;50.782;6.074;2022-12-18T11:11:14;100227.94;;;-1.63;100.00
24858;BME280;12935;50.782;6.074;2022-12-18T11:13:41;100224.72;;;-1.19;100.00
24858;BME280;12935;50.782;6.074;2022-12-18T11:16:19;100227.50;;;-0.83;100.00
24858;BME280;12935;50.782;6.074;2022-12-18T11:18:45;100222.59;;;-0.94;100.00
24858;BME280;12935;50.782;6.074;2022-12-18T11:21:12;100217.38;;;-1.13;100.00
24858;BME280;12935;50.782;6.074;2022-12-18T11:23:46;100211.31;;;-1.05;100.00
24858;BME280;12935;50.782;6.074;2022-12-18T11:26:13;100208.53;;;-1.14;100.00
24858;BME280;12935;50.782;6.074;2022-12-18T11:28:49;100206.03;;;-1.10;100.00
24858;BME280;12935;50.782;6.074;2022-12-18T11:31:19;100215.19;;;-1.11;100.00
24858;BME280;12935;50.782;6.074;2022-12-18T11:33:56;100221.44;;;-1.29;100.00
24858;BME280;12935;50.782;6.074;2022-12-18T11:36:23;100221.91;;;-1.41;100.00
24858;BME280;12935;50.782;6.074;2022-12-18T11:38:50;100210.72;;;-1.29;100.00
24858;BME280;12935;50.782;6.074;2022-12-18T11:41:27;100193.81;;;-0.89;100.00
24858;BME280;12935;50.782;6.074;2022-12-18T11:44:16;100201.00;;;-0.48;100.00
24858;BME280;12935;50.782;6.074;2022-12-18T11:46:51;100192.91;;;-0.34;100.00
24858;BME280;12935;50.782;6.074;2022-12-18T11:49:26;100199.22;;;-0.53;100.00
24858;BME280;12935;50.782;6.074;2022-12-18T11:52:03;100194.88;;;-0.76;100.00
24858;BME280;12935;50.782;6.074;2022-12-18T11:54:30;100189.00;;;-0.78;100.00
24858;BME280;12935;50.782;6.074;2022-12-18T12:08:01;100177.56;;;0.11;100.00
24858;BME280;12935;50.782;6.074;2022-12-18T12:10:58;100161.09;;;0.34;100.00
24858;BME280;12935;50.782;6.074;2022-12-18T12:21:46;100155.69;;;0.04;100.00
24858;BME280;12935;50.782;6.074;2022-12-18T12:29:38;100137.25;;;0.42;100.00
24858;BME280;12935;50.782;6.074;2022-12-18T12:32:58;100139.25;;;0.27;100.00
24858;BME280;12935;50.782;6.074;2022-12-18T12:40:31;100138.03;;;0.99;100.00
24858;BME280;12935;50.782;6.074;2022-12-18T12:43:02;100126.03;;;1.05;100.00
24858;BME280;12935;50.782;6.074;2022-12-18T12:45:49;100121.25;;;0.85;100.00
24858;BME280;12935;50.782;6.074;2022-12-18T12:51:32;100125.44;;;1.25;100.00
24858;BME280;12935;50.782;6.074;2022-12-18T12:54:00;100115.28;;;1.31;100.00
24858;BME280;12935;50.782;6.074;2022-12-18T12:59:25;100101.34;;;1.55;100.00
24858;BME280;12935;50.782;6.074;2022-12-18T13:04:59;100096.06;;;1.75;100.00
24858;BME280;12935;50.782;6.074;2022-12-18T13:07:42;100088.78;;;1.85;100.00
24858;BME280;12935;50.782;6.074;2022-12-18T13:13:09;100074.78;;;2.00;100.00
24858;BME280;12935;50.782;6.074;2022-12-18T13:15:46;100068.72;;;2.11;100.00
24858;BME280;12935;50.782;6.074;2022-12-18T13:20:49;100064.69;;;2.26;95.81
24858;BME280;12935;50.782;6.074;2022-12-18T13:23:26;100059.72;;;2.37;94.03
24858;BME280;12935;50.782;6.074;2022-12-18T13:25:59;100057.31;;;2.44;92.18
24858;BME280;12935;50.782;6.074;2022-12-18T13:31:10;100060.88;;;2.57;88.25
24858;BME280;12935;50.782;6.074;2022-12-18T13:33:45;100074.81;;;2.67;86.97
24858;BME280;12935;50.782;6.074;2022-12-18T13:38:42;100053.94;;;2.76;86.39
24858;BME280;12935;50.782;6.074;2022-12-18T13:43:45;100069.88;;;2.90;85.00
24858;BME280;12935;50.782;6.074;2022-12-18T13:51:17;100047.50;;;3.10;81.27
24858;BME280;12935;50.782;6.074;2022-12-18T13:53:55;100048.69;;;3.22;78.19
24858;BME280;12935;50.782;6.074;2022-12-18T13:56:27;100042.88;;;3.32;77.44
24858;BME280;12935;50.782;6.074;2022-12-18T14:04:28;100037.22;;;3.45;76.00
24858;BME280;12935;50.782;6.074;2022-12-18T14:09:46;100022.34;;;3.51;74.52
24858;BME280;12935;50.782;6.074;2022-12-18T14:12:19;100021.03;;;3.58;73.99
24858;BME280;12935;50.782;6.074;2022-12-18T14:15:06;100031.50;;;3.59;72.87
24858;BME280;12935;50.782;6.074;2022-12-18T14:17:38;100014.16;;;3.60;73.01
24858;BME280;12935;50.782;6.074;2022-12-18T14:20:13;100026.31;;;3.66;73.12
24858;BME280;12935;50.782;6.074;2022-12-18T14:22:43;100035.88;;;3.64;72.92
24858;BME280;12935;50.782;6.074;2022-12-18T14:27:42;100025.91;;;2.39;83.70
24858;BME280;12935;50.782;6.074;2022-12-18T14:33:05;100031.56;;;1.79;92.75
24858;BME280;12935;50.782;6.074;2022-12-18T14:35:33;100029.84;;;1.74;94.87
24858;BME280;12935;50.782;6.074;2022-12-18T14:38:29;100026.66;;;1.81;95.52
24858;BME280;12935;50.782;6.074;2022-12-18T14:43:35;100043.25;;;1.11;100.00